Time;durP1;ratioP1;P1;durP2;ratioP2;P2;SDS_P1;SDS_P2;PMS_P1;PMS_P2;Temp;Humidity;BMP_temperature;BMP_pressure;BME280_temperature;BME280_humidity;BME280_pressure;Samples;Min_cycle;Max_cycle;Signal;HPM_P1;HPM_P2
2021/11/23 00:01:25;;;;;;;29.30;23.30;;;1.10;99.80;;;;;;5041045;28;20750;-87
2021/11/23 00:03:53;;;;;;;34.80;25.63;;;1.10;99.80;;;;;;5066653;28;20232;-87
2021/11/23 00:06:21;;;;;;;30.70;23.77;;;1.10;99.80;;;;;;5065333;28;20221;-87
2021/11/23 00:08:49;;;;;;;35.67;24.30;;;1.00;99.80;;;;;;5057420;28;20220;-88
2021/11/23 00:11:17;;;;;;;28.92;23.83;;;0.80;99.80;;;;;;5046270;28;20613;-88
2021/11/23 00:13:45;;;;;;;27.55;22.17;;;0.80;99.80;;;;;;5052991;28;20227;-86
2021/11/23 00:16:17;;;;;;;28.27;22.95;;;0.70;99.80;;;;;;5061811;28;20274;-87
2021/11/23 00:18:47;;;;;;;29.80;23.50;;;0.70;99.80;;;;;;5059121;28;20233;-88
2021/11/23 00:21:16;;;;;;;33.35;27.08;;;0.70;99.80;;;;;;5071727;28;20234;-86
2021/11/23 00:23:44;;;;;;;26.05;21.63;;;0.70;99.80;;;;;;5067772;28;20235;-89
2021/11/23 00:26:12;;;;;;;27.17;22.17;;;0.70;99.80;;;;;;5082110;28;20229;-90
2021/11/23 00:28:45;;;;;;;31.88;22.35;;;0.70;99.80;;;;;;5070187;28;20316;-88
2021/11/23 00:31:13;;;;;;;33.97;26.10;;;0.70;99.80;;;;;;5068919;28;20647;-88
2021/11/23 00:33:42;;;;;;;26.85;21.77;;;0.70;99.80;;;;;;5072574;28;20251;-88
2021/11/23 00:36:13;;;;;;;26.42;22.58;;;0.70;99.80;;;;;;5071166;28;20312;-88
2021/11/23 00:38:44;;;;;;;26.63;22.25;;;0.80;99.80;;;;;;5067284;28;20614;-88
2021/11/23 00:41:13;;;;;;;32.10;24.17;;;0.80;99.80;;;;;;5060973;28;20227;-87
2021/11/23 00:43:41;;;;;;;27.67;22.98;;;0.90;99.80;;;;;;5075464;28;20225;-88
2021/11/23 00:46:09;;;;;;;29.85;23.20;;;0.90;99.80;;;;;;5071950;28;20330;-87
2021/11/23 00:48:38;;;;;;;28.08;23.73;;;1.00;99.80;;;;;;5072968;28;20228;-88
2021/11/23 00:51:07;;;;;;;30.48;23.98;;;1.00;99.80;;;;;;5039533;28;20237;-88
2021/11/23 00:53:36;;;;;;;28.70;22.58;;;1.00;99.80;;;;;;5049351;28;20234;-88
2021/11/23 00:56:06;;;;;;;32.25;25.50;;;1.00;99.80;;;;;;5039218;28;20226;-88
2021/11/23 00:58:35;;;;;;;33.13;25.88;;;1.10;99.80;;;;;;5051481;28;20239;-88
2021/11/23 01:01:04;;;;;;;28.10;22.80;;;1.10;99.80;;;;;;5045872;28;20233;-88
2021/11/23 01:03:33;;;;;;;30.98;25.27;;;1.10;99.80;;;;;;5042820;28;20225;-87
2021/11/23 01:06:01;;;;;;;30.75;23.67;;;1.20;99.80;;;;;;5056360;28;20230;-88
2021/11/23 01:08:29;;;;;;;29.05;23.83;;;1.10;99.80;;;;;;5048127;28;20629;-88
2021/11/23 01:11:02;;;;;;;30.70;22.48;;;1.10;99.80;;;;;;5061055;28;20237;-87
2021/11/23 01:13:30;;;;;;;26.90;22.77;;;1.10;99.80;;;;;;5074838;28;20232;-87
2021/11/23 01:15:58;;;;;;;34.15;23.85;;;1.10;99.80;;;;;;5075754;28;20770;-87
2021/11/23 01:18:26;;;;;;;40.15;23.80;;;1.10;99.80;;;;;;5067662;28;20233;-88
2021/11/23 01:20:54;;;;;;;30.70;24.20;;;1.10;99.80;;;;;;5085990;28;20230;-87
2021/11/23 01:23:22;;;;;;;27.88;22.75;;;1.10;99.80;;;;;;5063945;28;20220;-88
2021/11/23 01:25:50;;;;;;;29.67;23.80;;;1.20;99.80;;;;;;5063466;28;20628;-88
2021/11/23 01:28:20;;;;;;;28.23;23.88;;;1.20;99.80;;;;;;5073322;28;20226;-87
2021/11/23 01:30:48;;;;;;;35.17;23.95;;;1.20;99.80;;;;;;5056297;28;20316;-87
2021/11/23 01:33:17;;;;;;;27.33;22.67;;;1.20;99.80;;;;;;5063892;28;20250;-89
2021/11/23 01:35:45;;;;;;;31.17;24.30;;;1.20;99.80;;;;;;5053990;28;20266;-89
2021/11/23 01:38:14;;;;;;;31.75;24.83;;;1.20;99.80;;;;;;5075910;28;20644;-89
2021/11/23 01:40:43;;;;;;;36.03;23.50;;;1.20;99.80;;;;;;5059314;28;20231;-89
2021/11/23 01:43:11;;;;;;;37.30;24.60;;;1.10;99.80;;;;;;5054989;28;20716;-88
2021/11/23 01:45:41;;;;;;;34.42;26.40;;;1.10;99.80;;;;;;5063085;28;20223;-88
2021/11/23 01:48:10;;;;;;;37.35;28.48;;;1.20;99.80;;;;;;5067495;28;20220;-88
2021/11/23 01:50:39;;;;;;;28.50;23.38;;;1.20;99.80;;;;;;5052054;28;20248;-90
2021/11/23 01:53:07;;;;;;;35.53;28.38;;;1.20;99.80;;;;;;5067568;28;20731;-90
2021/11/23 01:55:37;;;;;;;32.60;25.88;;;1.20;99.80;;;;;;5044379;28;20238;-89
2021/11/23 01:58:07;;;;;;;33.40;26.83;;;1.10;99.80;;;;;;5044019;28;20234;-88
2021/11/23 02:00:36;;;;;;;33.03;26.02;;;1.10;99.80;;;;;;5064900;28;20230;-90
2021/11/23 02:03:05;;;;;;;36.50;28.30;;;1.00;99.80;;;;;;5055608;28;20230;-89
2021/11/23 02:05:36;;;;;;;31.90;25.95;;;0.80;99.80;;;;;;5057096;28;20228;-90
2021/11/23 02:08:06;;;;;;;36.60;25.92;;;0.70;99.80;;;;;;5080824;28;20286;-89
2021/11/23 02:10:35;;;;;;;32.17;24.52;;;0.60;99.80;;;;;;5071744;28;20610;-89
2021/11/23 02:13:03;;;;;;;35.08;27.40;;;0.50;99.80;;;;;;5060033;28;20251;-89
2021/11/23 02:15:32;;;;;;;31.58;25.30;;;0.50;99.80;;;;;;5062518;28;20232;-90
2021/11/23 02:18:00;;;;;;;32.20;23.55;;;0.40;99.80;;;;;;5057531;28;20852;-89
2021/11/23 02:20:31;;;;;;;37.40;24.13;;;0.40;99.80;;;;;;5065086;28;20753;-90
2021/11/23 02:22:59;;;;;;;35.15;26.33;;;0.30;99.80;;;;;;5065972;28;20230;-89
2021/11/23 02:25:27;;;;;;;30.27;24.17;;;0.30;99.80;;;;;;5050164;28;20305;-89
2021/11/23 02:27:55;;;;;;;32.65;24.77;;;0.20;99.80;;;;;;5070118;28;20726;-89
2021/11/23 02:30:23;;;;;;;35.75;27.25;;;0.10;99.80;;;;;;5058201;28;20237;-89
2021/11/23 02:32:52;;;;;;;29.77;24.35;;;0.00;99.80;;;;;;5060378;28;20225;-89
2021/11/23 02:35:22;;;;;;;33.08;24.63;;;0.00;99.80;;;;;;5054945;28;20224;-90
2021/11/23 02:37:54;;;;;;;28.40;23.02;;;-0.10;99.80;;;;;;5056594;28;20232;-89
2021/11/23 02:40:25;;;;;;;35.25;27.17;;;0.00;99.80;;;;;;5053627;28;20684;-90
2021/11/23 02:42:54;;;;;;;28.45;22.33;;;0.10;99.80;;;;;;5059183;28;20228;-89
2021/11/23 02:45:26;;;;;;;31.17;23.50;;;0.20;99.80;;;;;;5063387;28;20227;-89
2021/11/23 02:47:55;;;;;;;28.33;22.38;;;0.30;99.80;;;;;;5065522;28;20283;-90
2021/11/23 02:50:25;;;;;;;33.22;24.58;;;0.20;99.80;;;;;;5065412;28;20235;-89
2021/11/23 02:52:54;;;;;;;29.20;24.00;;;0.20;99.80;;;;;;5065153;28;20782;-90
2021/11/23 02:55:25;;;;;;;28.10;22.60;;;0.10;99.80;;;;;;5062809;28;20217;-89
2021/11/23 02:57:54;;;;;;;26.95;22.55;;;0.00;99.80;;;;;;5053422;28;20222;-90
2021/11/23 03:00:25;;;;;;;29.20;23.73;;;-0.10;99.80;;;;;;5066570;28;20228;-89
2021/11/23 03:02:54;;;;;;;30.42;23.58;;;-0.10;99.80;;;;;;5095873;28;20217;-90
2021/11/23 03:05:24;;;;;;;29.02;23.85;;;-0.10;99.80;;;;;;5069907;28;20314;-89
2021/11/23 03:07:55;;;;;;;28.00;22.85;;;-0.20;99.80;;;;;;5069288;28;20224;-89
2021/11/23 03:10:27;;;;;;;26.90;22.63;;;-0.20;99.80;;;;;;5053050;28;21804;-89
2021/11/23 03:12:56;;;;;;;31.65;22.95;;;-0.20;99.80;;;;;;5055315;28;20604;-90
2021/11/23 03:15:26;;;;;;;30.98;24.70;;;-0.30;99.80;;;;;;5059191;28;20295;-90
2021/11/23 03:17:54;;;;;;;29.35;22.42;;;-0.30;99.80;;;;;;5062776;28;20230;-90
2021/11/23 03:20:24;;;;;;;26.20;21.40;;;-0.20;99.80;;;;;;5054356;28;20241;-90
2021/11/23 03:22:54;;;;;;;27.83;21.45;;;-0.20;99.80;;;;;;5059076;28;20236;-90
2021/11/23 03:25:22;;;;;;;29.55;23.33;;;-0.20;99.80;;;;;;5062255;28;20246;-89
2021/11/23 03:27:50;;;;;;;35.60;20.85;;;-0.30;99.80;;;;;;5071056;28;20707;-89
2021/11/23 03:30:23;;;;;;;25.52;20.63;;;-0.30;99.80;;;;;;5042040;28;20651;-90
2021/11/23 03:32:55;;;;;;;26.58;20.63;;;-0.30;99.80;;;;;;5052474;28;20307;-90
2021/11/23 03:35:25;;;;;;;29.15;23.83;;;-0.30;99.80;;;;;;5057495;28;20220;-90
2021/11/23 03:37:58;;;;;;;27.08;20.98;;;-0.30;99.80;;;;;;5073091;28;20236;-89
2021/11/23 03:40:28;;;;;;;30.23;21.65;;;-0.40;99.80;;;;;;5064253;28;20226;-89
2021/11/23 03:42:56;;;;;;;27.65;21.90;;;-0.40;99.80;;;;;;5042840;28;20246;-89
2021/11/23 03:45:25;;;;;;;25.27;19.77;;;-0.40;99.80;;;;;;5060150;28;20256;-89
2021/11/23 03:47:54;;;;;;;24.67;21.10;;;-0.40;99.80;;;;;;5050386;28;20225;-89
2021/11/23 03:50:22;;;;;;;26.02;21.30;;;-0.40;99.80;;;;;;5062862;28;20609;-89
2021/11/23 03:52:50;;;;;;;14.38;12.43;;;-0.40;99.80;;;;;;5061708;28;20934;-89
2021/11/23 03:55:21;;;;;;;19.92;13.60;;;-0.40;99.80;;;;;;5045855;28;20231;-89
2021/11/23 03:57:52;;;;;;;17.75;14.23;;;-0.40;99.80;;;;;;5050111;28;20597;-89
2021/11/23 04:00:23;;;;;;;13.63;11.52;;;-0.40;99.80;;;;;;5056971;27;20232;-89
2021/11/23 04:02:53;;;;;;;15.98;10.73;;;-0.40;99.80;;;;;;5042083;28;20314;-88
2021/11/23 04:05:21;;;;;;;17.55;12.23;;;-0.40;99.80;;;;;;5062268;28;20310;-89
2021/11/23 04:07:49;;;;;;;14.05;11.82;;;-0.40;99.80;;;;;;5066693;28;20224;-89
2021/11/23 04:10:21;;;;;;;16.02;11.07;;;-0.40;99.80;;;;;;5063938;28;20333;-91
2021/11/23 04:12:51;;;;;;;16.00;12.77;;;-0.40;99.80;;;;;;5061200;28;20216;-91
2021/11/23 04:15:19;;;;;;;19.40;13.20;;;-0.30;99.80;;;;;;5052642;28;20220;-91
2021/11/23 04:17:48;;;;;;;18.00;15.27;;;-0.30;99.80;;;;;;5053145;28;20227;-91
2021/11/23 04:20:16;;;;;;;25.92;20.30;;;-0.30;99.80;;;;;;5062729;28;20224;-91
2021/11/23 04:22:45;;;;;;;16.83;13.30;;;-0.20;99.80;;;;;;5062592;28;20260;-89
2021/11/23 04:25:14;;;;;;;16.63;13.73;;;-0.20;99.80;;;;;;5062864;28;20229;-88
2021/11/23 04:27:44;;;;;;;17.98;15.82;;;-0.20;99.80;;;;;;5064584;28;20233;-88
2021/11/23 04:30:13;;;;;;;21.65;18.30;;;-0.30;99.80;;;;;;5057395;28;21586;-90
2021/11/23 04:32:42;;;;;;;17.00;14.43;;;-0.30;99.80;;;;;;5069807;28;20736;-88
2021/11/23 04:35:11;;;;;;;16.73;13.65;;;-0.40;99.80;;;;;;5069857;28;20309;-88
2021/11/23 04:37:40;;;;;;;13.15;11.75;;;-0.40;99.80;;;;;;5065133;28;20231;-88
2021/11/23 04:40:09;;;;;;;15.30;11.52;;;-0.50;99.80;;;;;;5070971;28;20227;-88
2021/11/23 04:42:37;;;;;;;13.60;11.02;;;-0.50;99.80;;;;;;5071240;28;20228;-89
2021/11/23 04:45:09;;;;;;;12.88;10.77;;;-0.60;99.80;;;;;;5058786;28;20220;-88
2021/11/23 04:47:41;;;;;;;14.50;10.68;;;-0.60;99.80;;;;;;5059736;28;20603;-89
2021/11/23 04:50:13;;;;;;;14.35;10.32;;;-0.60;99.80;;;;;;5038004;28;20309;-89
2021/11/23 04:52:45;;;;;;;16.17;11.25;;;-0.70;99.80;;;;;;5081620;28;20233;-89
2021/11/23 04:55:13;;;;;;;18.70;11.30;;;-0.80;99.80;;;;;;5050488;28;20222;-89
2021/11/23 04:57:42;;;;;;;17.40;12.10;;;-0.80;99.80;;;;;;5049789;28;20221;-88
2021/11/23 05:00:14;;;;;;;16.50;11.85;;;-0.80;99.80;;;;;;5046208;28;20232;-89
2021/11/23 05:02:42;;;;;;;15.40;10.93;;;-0.90;99.80;;;;;;5057325;28;20654;-89
2021/11/23 05:05:11;;;;;;;16.48;11.00;;;-0.90;99.80;;;;;;5053207;28;20248;-88
2021/11/23 05:07:41;;;;;;;16.33;11.55;;;-0.90;99.80;;;;;;5057707;28;20321;-89
2021/11/23 05:10:10;;;;;;;18.08;11.00;;;-1.00;99.80;;;;;;5054632;28;20231;-88
2021/11/23 05:12:39;;;;;;;15.63;12.07;;;-1.00;99.80;;;;;;5069058;28;20225;-89
2021/11/23 05:15:08;;;;;;;25.65;16.80;;;-0.90;99.80;;;;;;5049119;28;20221;-89
2021/11/23 05:17:38;;;;;;;16.50;11.80;;;-0.90;99.80;;;;;;5039265;28;20229;-89
2021/11/23 05:20:08;;;;;;;16.75;12.25;;;-0.90;99.80;;;;;;5012161;28;20220;-89
2021/11/23 05:22:36;;;;;;;16.10;11.10;;;-0.90;99.80;;;;;;5058281;28;20744;-88
2021/11/23 05:25:06;;;;;;;18.38;12.32;;;-1.00;99.80;;;;;;5062031;28;20729;-89
2021/11/23 05:27:34;;;;;;;17.40;12.05;;;-0.90;99.80;;;;;;5046300;28;20907;-88
2021/11/23 05:30:03;;;;;;;16.83;11.75;;;-1.00;99.80;;;;;;5045426;28;20600;-89
2021/11/23 05:32:31;;;;;;;15.20;11.15;;;-1.00;99.80;;;;;;5051429;28;20228;-88
2021/11/23 05:35:00;;;;;;;17.05;11.48;;;-1.00;99.80;;;;;;5051660;28;20271;-89
2021/11/23 05:37:28;;;;;;;18.80;10.63;;;-1.10;99.80;;;;;;5051743;28;20262;-88
2021/11/23 05:39:56;;;;;;;20.90;13.07;;;-1.00;99.80;;;;;;5064643;28;20239;-89
2021/11/23 05:42:24;;;;;;;16.70;11.88;;;-1.00;99.80;;;;;;5058375;28;20298;-89
2021/11/23 05:44:52;;;;;;;16.73;11.18;;;-1.00;99.80;;;;;;5050369;28;20220;-88
2021/11/23 05:47:20;;;;;;;19.15;13.15;;;-1.10;99.80;;;;;;5054640;28;20235;-89
2021/11/23 05:49:49;;;;;;;20.17;13.10;;;-1.10;99.80;;;;;;5058315;28;20243;-89
2021/11/23 05:52:19;;;;;;;16.15;11.23;;;-1.10;99.80;;;;;;5060301;28;20232;-89
2021/11/23 05:54:49;;;;;;;15.90;11.05;;;-1.10;99.80;;;;;;5066467;28;20227;-89
2021/11/23 05:57:17;;;;;;;14.65;11.70;;;-1.10;99.80;;;;;;5051306;28;20306;-88
2021/11/23 05:59:45;;;;;;;18.52;14.05;;;-1.20;99.80;;;;;;5054034;28;20816;-88
2021/11/23 06:02:13;;;;;;;17.15;11.80;;;-1.20;99.80;;;;;;5061238;28;20235;-88
2021/11/23 06:04:41;;;;;;;18.70;11.05;;;-1.20;99.80;;;;;;5053799;28;20611;-89
2021/11/23 06:07:09;;;;;;;15.85;11.25;;;-1.20;99.80;;;;;;5050353;28;20315;-88
2021/11/23 06:09:38;;;;;;;14.13;10.90;;;-1.20;99.80;;;;;;5051892;28;20234;-89
2021/11/23 06:12:07;;;;;;;14.70;10.93;;;-1.20;99.80;;;;;;5047408;28;20686;-89
2021/11/23 06:14:38;;;;;;;18.63;11.32;;;-1.20;99.80;;;;;;5053303;28;20241;-90
2021/11/23 06:17:07;;;;;;;22.73;15.48;;;-1.10;99.80;;;;;;5044646;28;20824;-90
2021/11/23 06:19:35;;;;;;;17.77;11.40;;;-1.10;99.80;;;;;;5040175;28;20243;-88
2021/11/23 06:22:04;;;;;;;17.42;11.13;;;-1.10;99.80;;;;;;5059416;28;20233;-89
2021/11/23 06:24:32;;;;;;;18.17;12.35;;;-1.20;99.80;;;;;;5070014;28;20236;-85
2021/11/23 06:27:02;;;;;;;16.33;12.77;;;-1.20;99.80;;;;;;5086029;28;20221;-86
2021/11/23 06:29:30;;;;;;;13.77;11.45;;;-1.20;99.80;;;;;;5081616;28;20289;-86
2021/11/23 06:32:01;;;;;;;17.33;11.95;;;-1.20;99.80;;;;;;5055033;28;20248;-86
2021/11/23 06:34:30;;;;;;;21.25;13.73;;;-1.20;99.80;;;;;;5055638;28;20262;-88
2021/11/23 06:37:01;;;;;;;18.05;12.18;;;-1.20;99.80;;;;;;5075662;28;20698;-88
2021/11/23 06:39:29;;;;;;;17.55;12.40;;;-1.20;99.80;;;;;;5058048;28;20233;-85
2021/11/23 06:42:01;;;;;;;14.38;10.95;;;-1.20;99.80;;;;;;5052483;28;20229;-87
2021/11/23 06:44:33;;;;;;;19.02;11.15;;;-1.20;99.80;;;;;;5041355;28;20267;-87
2021/11/23 06:47:01;;;;;;;18.55;12.80;;;-1.20;99.80;;;;;;5056672;28;20231;-86
2021/11/23 06:49:29;;;;;;;19.98;12.40;;;-1.20;99.80;;;;;;5036682;28;20616;-86
2021/11/23 06:52:01;;;;;;;16.83;11.68;;;-1.30;99.80;;;;;;5050769;28;20225;-87
2021/11/23 06:54:30;;;;;;;19.50;13.10;;;-1.30;99.80;;;;;;5051861;27;20250;-85
2021/11/23 06:57:00;;;;;;;25.35;15.32;;;-1.30;99.80;;;;;;5047492;28;20224;-86
2021/11/23 06:59:29;;;;;;;22.75;13.85;;;-1.20;99.80;;;;;;5051206;28;20232;-85
2021/11/23 07:01:57;;;;;;;18.27;11.75;;;-1.10;99.80;;;;;;5019301;28;20242;-85
2021/11/23 07:04:25;;;;;;;24.30;15.57;;;-1.10;99.80;;;;;;5021949;28;20228;-84
2021/11/23 07:06:53;;;;;;;16.08;11.18;;;-1.10;99.80;;;;;;5054516;28;20243;-84
2021/11/23 07:09:21;;;;;;;16.40;11.98;;;-1.20;99.80;;;;;;5057006;28;20304;-84
2021/11/23 07:11:49;;;;;;;14.27;10.38;;;-1.10;99.80;;;;;;5040815;28;20239;-84
2021/11/23 07:14:18;;;;;;;16.23;10.18;;;-1.10;99.80;;;;;;5051208;28;20231;-84
2021/11/23 07:16:58;;;;;;;18.42;11.60;;;-1.10;99.80;;;;;;5056642;28;20231;-85
2021/11/23 07:19:31;;;;;;;19.35;11.82;;;-1.00;99.80;;;;;;5054071;28;20297;-84
2021/11/23 07:21:59;;;;;;;21.65;11.60;;;-0.90;99.80;;;;;;5050799;28;20336;-85
2021/11/23 07:24:27;;;;;;;16.20;11.88;;;-0.90;99.80;;;;;;5036140;28;20728;-84
2021/11/23 07:26:56;;;;;;;22.88;13.45;;;-1.00;99.80;;;;;;5045779;28;20231;-84
2021/11/23 07:29:24;;;;;;;16.08;11.32;;;-0.90;99.80;;;;;;5055223;28;20224;-84
2021/11/23 07:31:53;;;;;;;42.88;20.33;;;-0.90;99.80;;;;;;5049406;28;20614;-84
2021/11/23 07:34:28;;;;;;;42.53;24.23;;;-0.70;99.80;;;;;;5016733;28;20239;-84
2021/11/23 07:36:56;;;;;;;46.75;25.35;;;-0.70;99.80;;;;;;5045380;28;20312;-84
2021/11/23 07:39:36;;;;;;;82.00;33.47;;;-0.70;99.80;;;;;;5054168;28;20229;-84
2021/11/23 07:42:05;;;;;;;28.83;16.55;;;-0.60;99.80;;;;;;5044278;28;20238;-84
2021/11/23 07:44:34;;;;;;;29.98;15.50;;;-0.60;99.80;;;;;;5052247;28;20308;-84
2021/11/23 07:47:03;;;;;;;18.73;12.75;;;-0.50;99.80;;;;;;5064494;28;20221;-84
2021/11/23 07:49:32;;;;;;;18.88;12.77;;;-0.40;99.80;;;;;;5069647;28;20316;-84
2021/11/23 07:52:09;;;;;;;15.32;11.43;;;-0.40;99.80;;;;;;5065305;28;20238;-85
2021/11/23 07:54:37;;;;;;;16.77;12.45;;;-0.40;99.80;;;;;;5059431;28;20234;-84
2021/11/23 07:57:05;;;;;;;14.60;11.40;;;-0.30;99.80;;;;;;5047335;28;20252;-84
2021/11/23 07:59:33;;;;;;;15.73;11.68;;;-0.20;99.80;;;;;;5059358;28;20237;-84
2021/11/23 08:02:16;;;;;;;15.43;12.23;;;-0.20;99.80;;;;;;5061662;28;20242;-84
2021/11/23 08:04:45;;;;;;;14.05;10.90;;;-0.10;99.80;;;;;;5049519;28;20711;-84
2021/11/23 08:07:13;;;;;;;16.63;11.32;;;-0.10;99.80;;;;;;5071243;28;20695;-85
2021/11/23 08:09:42;;;;;;;16.27;12.10;;;0.00;99.80;;;;;;5069613;28;20311;-83
2021/11/23 08:12:11;;;;;;;16.85;12.63;;;0.00;99.80;;;;;;5068758;28;20605;-82
2021/11/23 08:14:39;;;;;;;18.63;13.25;;;0.10;99.80;;;;;;5063855;28;20735;-84
2021/11/23 08:17:08;;;;;;;17.70;13.68;;;0.10;99.80;;;;;;5060059;28;20252;-82
2021/11/23 08:19:36;;;;;;;21.77;13.23;;;0.10;99.80;;;;;;5063990;28;20230;-82
2021/11/23 08:22:05;;;;;;;25.23;19.40;;;0.10;99.80;;;;;;5068614;28;20293;-82
2021/11/23 08:24:33;;;;;;;20.20;14.23;;;0.20;99.80;;;;;;5054845;28;20304;-84
2021/11/23 08:27:01;;;;;;;22.15;14.35;;;0.30;99.80;;;;;;5056688;28;20243;-83
2021/11/23 08:29:29;;;;;;;20.35;13.10;;;0.30;99.80;;;;;;5059119;28;20240;-83
2021/11/23 08:31:58;;;;;;;21.25;17.60;;;0.40;99.80;;;;;;5066108;28;20738;-83
2021/11/23 08:34:28;;;;;;;29.40;21.48;;;0.40;99.80;;;;;;5065595;28;20224;-82
2021/11/23 08:36:56;;;;;;;30.33;23.25;;;0.40;99.80;;;;;;5063268;28;20757;-83
2021/11/23 08:39:25;;;;;;;27.40;19.27;;;0.50;99.80;;;;;;5066255;28;20222;-83
2021/11/23 08:41:53;;;;;;;23.02;17.85;;;0.60;99.80;;;;;;5068213;28;20239;-83
2021/11/23 08:44:21;;;;;;;21.85;17.52;;;0.60;99.80;;;;;;5059523;28;20232;-83
2021/11/23 08:46:49;;;;;;;34.58;24.73;;;0.70;99.80;;;;;;5055194;28;20238;-84
2021/11/23 08:49:18;;;;;;;31.85;24.25;;;0.80;99.80;;;;;;5064019;28;20221;-84
2021/11/23 08:51:49;;;;;;;31.00;23.17;;;0.80;99.80;;;;;;5068595;28;20248;-84
2021/11/23 08:54:17;;;;;;;35.17;25.95;;;0.90;99.80;;;;;;5068862;28;20223;-83
2021/11/23 08:56:54;;;;;;;30.85;24.17;;;1.00;99.80;;;;;;5041479;28;20601;-84
2021/11/23 08:59:22;;;;;;;33.10;24.88;;;1.00;99.80;;;;;;5066117;28;20233;-83
2021/11/23 09:01:50;;;;;;;34.00;24.95;;;1.10;99.80;;;;;;5067134;28;20997;-81
2021/11/23 09:04:18;;;;;;;34.30;24.60;;;1.20;99.80;;;;;;5045901;28;20424;-84
2021/11/23 09:06:52;;;;;;;33.17;27.38;;;1.30;99.80;;;;;;5042667;28;20234;-83
2021/11/23 09:09:24;;;;;;;31.38;23.92;;;1.30;99.80;;;;;;5050522;28;20233;-83
2021/11/23 09:11:52;;;;;;;34.35;25.60;;;1.40;99.80;;;;;;5076238;28;20243;-83
2021/11/23 09:14:20;;;;;;;34.65;24.98;;;1.50;99.80;;;;;;5057791;28;20268;-84
2021/11/23 09:16:48;;;;;;;33.55;25.60;;;1.50;99.80;;;;;;5044979;28;20240;-83
2021/11/23 09:19:16;;;;;;;37.78;27.90;;;1.60;99.80;;;;;;5048282;28;20237;-84
2021/11/23 09:21:46;;;;;;;37.40;27.67;;;1.70;99.80;;;;;;5076537;28;20233;-84
2021/11/23 09:24:15;;;;;;;39.95;28.58;;;1.70;99.80;;;;;;5066034;28;20299;-84
2021/11/23 09:26:44;;;;;;;38.88;25.67;;;1.80;99.80;;;;;;5058332;28;20229;-85
2021/11/23 09:29:13;;;;;;;34.63;25.95;;;1.80;99.80;;;;;;5050744;28;20228;-84
2021/11/23 09:31:42;;;;;;;34.22;25.70;;;1.90;99.80;;;;;;5072568;28;20232;-84
2021/11/23 09:34:11;;;;;;;34.72;25.15;;;2.00;99.80;;;;;;5086417;28;20234;-84
2021/11/23 09:36:40;;;;;;;39.40;27.67;;;2.10;99.80;;;;;;5087497;28;20230;-83
2021/11/23 09:39:09;;;;;;;34.78;24.42;;;2.20;99.80;;;;;;5061014;28;20686;-83
2021/11/23 09:41:39;;;;;;;35.35;26.00;;;2.20;99.80;;;;;;5090566;28;20265;-84
2021/11/23 09:44:10;;;;;;;33.00;25.20;;;2.30;99.80;;;;;;5083777;28;20222;-84
2021/11/23 09:46:39;;;;;;;37.20;26.45;;;2.30;99.80;;;;;;5086304;28;20244;-84
2021/11/23 09:49:09;;;;;;;43.88;29.98;;;2.50;99.80;;;;;;5085546;28;20227;-84
2021/11/23 09:51:38;;;;;;;35.95;27.60;;;2.60;99.80;;;;;;5073591;28;20231;-83
2021/11/23 09:54:08;;;;;;;37.80;28.35;;;2.60;99.80;;;;;;5067380;28;20233;-84
2021/11/23 09:56:39;;;;;;;39.72;27.88;;;2.70;99.80;;;;;;5068110;28;20233;-84
2021/11/23 09:59:12;;;;;;;44.50;31.50;;;2.80;99.80;;;;;;5075096;28;20630;-85
2021/11/23 10:01:49;;;;;;;48.60;29.23;;;2.90;99.80;;;;;;5087650;28;20232;-85
2021/11/23 10:04:18;;;;;;;37.83;28.77;;;3.00;99.80;;;;;;5080896;28;20297;-85
2021/11/23 10:06:58;;;;;;;42.28;28.02;;;3.10;99.80;;;;;;5075557;28;20234;-86
2021/11/23 10:09:30;;;;;;;39.40;29.42;;;3.20;99.80;;;;;;5075156;28;20599;-85
2021/11/23 10:12:20;;;;;;;38.15;28.77;;;3.30;99.80;;;;;;5074616;28;20237;-84
2021/11/23 10:15:11;;;;;;;40.03;28.52;;;3.60;99.80;;;;;;5072123;28;20237;-84
2021/11/23 10:17:40;;;;;;;35.92;27.15;;;3.80;99.80;;;;;;5069957;28;20302;-84
2021/11/23 10:20:25;;;;;;;48.15;30.40;;;4.00;99.80;;;;;;5094364;28;20239;-84
2021/11/23 10:22:54;;;;;;;45.42;30.42;;;4.30;99.80;;;;;;5065634;28;20233;-86
2021/11/23 10:25:22;;;;;;;38.88;28.77;;;4.60;99.80;;;;;;5071275;28;20319;-84
2021/11/23 10:27:52;;;;;;;43.25;29.17;;;5.00;99.80;;;;;;5071478;28;20576;-84
2021/11/23 10:30:20;;;;;;;38.90;28.55;;;5.50;99.80;;;;;;5068653;28;21018;-84
2021/11/23 10:32:51;;;;;;;42.88;29.30;;;5.90;99.80;;;;;;5089855;28;20226;-85
2021/11/23 10:35:22;;;;;;;41.10;28.75;;;6.00;99.80;;;;;;5089929;28;20222;-85
2021/11/23 10:37:50;;;;;;;47.08;30.95;;;6.30;99.80;;;;;;5077467;28;20224;-85
2021/11/23 10:40:22;;;;;;;43.97;31.30;;;6.60;99.80;;;;;;5062407;28;20228;-82
2021/11/23 10:42:54;;;;;;;40.70;29.38;;;6.80;99.80;;;;;;5040795;28;20224;-83
2021/11/23 10:45:22;;;;;;;42.17;31.77;;;6.90;99.80;;;;;;5048324;28;20232;-82
2021/11/23 10:47:51;;;;;;;44.80;30.30;;;6.70;99.80;;;;;;5057522;28;20238;-82
2021/11/23 10:50:20;;;;;;;46.28;31.00;;;6.30;99.80;;;;;;5050218;28;20223;-83
2021/11/23 10:52:50;;;;;;;41.45;29.95;;;6.00;99.80;;;;;;5072807;28;20233;-84
2021/11/23 10:55:31;;;;;;;43.95;30.25;;;5.70;99.80;;;;;;5066077;28;20224;-82
2021/11/23 10:58:03;;;;;;;44.45;30.58;;;5.90;99.80;;;;;;5069103;28;20227;-84
2021/11/23 11:00:34;;;;;;;43.67;31.40;;;7.70;99.80;;;;;;5069521;28;20307;-83
2021/11/23 11:03:03;;;;;;;51.53;30.60;;;;;;;;;;5042545;28;20721;-83
2021/11/23 11:05:32;;;;;;;59.53;42.17;;;;;;;;;;5067559;28;20231;-83
2021/11/23 11:08:01;;;;;;;69.28;46.28;;;;;;;;;;5068188;28;20220;-83
2021/11/23 11:10:29;;;;;;;68.63;43.33;;;;;;;;;;5070204;28;20269;-84
2021/11/23 11:12:58;;;;;;;61.07;43.40;;;;;;;;;;5059461;28;20458;-83
2021/11/23 11:15:33;;;;;;;61.75;43.33;;;12.00;88.20;;;;;;5055696;28;20472;-83
2021/11/23 11:18:02;;;;;;;60.87;43.13;;;12.10;90.70;;;;;;5067438;28;20227;-83
2021/11/23 11:20:40;;;;;;;61.17;43.17;;;12.90;88.10;;;;;;5063082;28;20475;-83
2021/11/23 11:23:10;;;;;;;61.20;41.77;;;12.40;87.70;;;;;;5066925;28;21775;-87
2021/11/23 11:25:54;;;;;;;61.20;42.93;;;11.50;91.70;;;;;;5046201;28;20473;-85
2021/11/23 11:28:42;;;;;;;62.33;43.07;;;10.30;92.30;;;;;;5049810;28;20489;-86
2021/11/23 11:34:27;;;;;;;41.38;30.13;;;8.40;99.80;;;;;;5078838;27;20532;-85
2021/11/23 11:37:15;;;;;;;44.55;30.80;;;8.00;99.80;;;;;;5085572;28;20230;-84
2021/11/23 11:39:47;;;;;;;43.67;29.88;;;7.60;99.80;;;;;;5107053;27;20653;-84
2021/11/23 11:42:47;;;;;;;44.63;30.83;;;7.30;99.80;;;;;;5081895;27;20323;-84
2021/11/23 11:45:15;;;;;;;48.83;31.48;;;7.20;99.80;;;;;;5075989;27;20315;-84
2021/11/23 11:47:45;;;;;;;41.17;29.00;;;7.10;99.80;;;;;;5079538;28;20282;-84
2021/11/23 11:50:20;;;;;;;57.33;32.35;;;7.00;99.80;;;;;;5082876;28;20476;-85
2021/11/23 11:53:14;;;;;;;46.80;31.50;;;7.30;99.80;;;;;;5086081;28;20244;-85
2021/11/23 11:55:51;;;;;;;50.10;35.63;;;9.00;99.80;;;;;;5040281;28;20224;-84
2021/11/23 11:58:55;;;;;;;59.03;41.93;;;;;;;;;;5055657;28;20230;-84
2021/11/23 12:01:24;;;;;;;60.33;42.87;;;;;;;;;;4999049;28;20916;-82
2021/11/23 12:04:03;;;;;;;67.00;45.07;;;;;;;;;;4984668;28;21218;-82
2021/11/23 12:06:50;;;;;;;64.70;44.30;;;;;;;;;;5036137;28;20454;-83
2021/11/23 12:09:29;;;;;;;67.90;45.80;;;;;;;;;;5061443;28;20476;-83
2021/11/23 12:11:58;;;;;;;69.17;45.77;;;;;;;;;;5062422;28;20499;-84
2021/11/23 12:14:27;;;;;;;67.37;45.37;;;;;;;;;;5061173;28;20511;-81
2021/11/23 12:17:01;;;;;;;68.90;46.23;;;;;;;;;;5062217;28;20472;-83
2021/11/23 12:19:54;;;;;;;69.13;44.77;;;;;;;;;;5055026;28;20507;-83
2021/11/23 12:22:25;;;;;;;68.37;45.37;;;;;;;;;;5072850;28;20472;-82
2021/11/23 12:24:56;;;;;;;65.73;44.53;;;;;;;;;;5054209;28;20460;-83
2021/11/23 12:27:24;;;;;;;74.07;48.90;;;;;;;;;;5050354;28;20481;-84
2021/11/23 12:29:57;;;;;;;69.10;46.07;;;;;;;;;;5044271;27;20473;-84
2021/11/23 12:32:29;;;;;;;65.20;44.73;;;;;;;;;;5069929;28;20852;-84
2021/11/23 12:34:57;;;;;;;62.93;41.27;;;;;;;;;;5068894;28;20457;-85
2021/11/23 12:37:34;;;;;;;65.03;45.00;;;;;;;;;;5078373;28;20567;-85
2021/11/23 12:40:12;;;;;;;62.03;41.63;;;;;;;;;;5081438;28;20472;-84
2021/11/23 12:42:50;;;;;;;62.03;41.17;;;;;;;;;;5082424;28;20470;-84
2021/11/23 12:45:19;;;;;;;66.13;42.30;;;;;;;;;;5071256;28;20593;-84
2021/11/23 12:47:50;;;;;;;76.53;51.87;;;;;;;;;;5050195;28;21025;-84
2021/11/23 12:50:19;;;;;;;66.83;44.23;;;;;;;;;;5065891;28;20491;-84
2021/11/23 12:52:47;;;;;;;63.27;42.93;;;;;;;;;;5051472;28;20465;-82
2021/11/23 12:55:18;;;;;;;66.03;43.77;;;;;;;;;;5039053;28;20832;-83
2021/11/23 12:57:52;;;;;;;72.90;48.10;;;;;;;;;;5050181;28;20481;-83
2021/11/23 13:00:20;;;;;;;66.60;45.10;;;;;;;;;;5028072;28;20465;-82